sensor_id;sensor_type;location;lat;lon;timestamp;P1;durP1;ratioP1;P2;durP2;ratioP2
1384;SDS011;686;51.080;13.716;2022-08-19T00:00:01;21.43;;;15.50;;
1384;SDS011;686;51.080;13.716;2022-08-19T00:02:33;17.87;;;16.07;;
1384;SDS011;686;51.080;13.716;2022-08-19T00:04:59;18.20;;;16.40;;
1384;SDS011;686;51.080;13.716;2022-08-19T00:07:24;22.03;;;16.70;;
1384;SDS011;686;51.080;13.716;2022-08-19T00:09:50;21.70;;;16.97;;
1384;SDS011;686;51.080;13.716;2022-08-19T00:12:16;22.03;;;17.90;;
1384;SDS011;686;51.080;13.716;2022-08-19T00:14:42;19.57;;;17.43;;
1384;SDS011;686;51.080;13.716;2022-08-19T00:17:08;19.70;;;17.27;;
1384;SDS011;686;51.080;13.716;2022-08-19T00:19:34;17.97;;;16.20;;
1384;SDS011;686;51.080;13.716;2022-08-19T00:22:00;20.50;;;17.70;;
1384;SDS011;686;51.080;13.716;2022-08-19T00:24:27;19.07;;;16.93;;
1384;SDS011;686;51.080;13.716;2022-08-19T00:26:54;22.17;;;17.20;;
1384;SDS011;686;51.080;13.716;2022-08-19T00:29:22;21.33;;;19.00;;
1384;SDS011;686;51.080;13.716;2022-08-19T00:31:49;20.63;;;18.63;;
1384;SDS011;686;51.080;13.716;2022-08-19T00:34:18;20.63;;;18.40;;
1384;SDS011;686;51.080;13.716;2022-08-19T00:36:44;23.10;;;18.43;;
1384;SDS011;686;51.080;13.716;2022-08-19T00:39:10;24.30;;;18.40;;
1384;SDS011;686;51.080;13.716;2022-08-19T00:41:37;21.40;;;18.90;;
1384;SDS011;686;51.080;13.716;2022-08-19T00:44:05;21.40;;;19.10;;
1384;SDS011;686;51.080;13.716;2022-08-19T00:46:38;20.13;;;18.13;;
1384;SDS011;686;51.080;13.716;2022-08-19T00:49:14;22.80;;;17.97;;
1384;SDS011;686;51.080;13.716;2022-08-19T00:51:45;21.13;;;18.80;;
1384;SDS011;686;51.080;13.716;2022-08-19T00:54:13;24.50;;;19.47;;
1384;SDS011;686;51.080;13.716;2022-08-19T00:56:39;22.33;;;19.37;;
1384;SDS011;686;51.080;13.716;2022-08-19T00:59:06;20.93;;;18.73;;
1384;SDS011;686;51.080;13.716;2022-08-19T01:01:39;20.17;;;17.93;;
1384;SDS011;686;51.080;13.716;2022-08-19T01:04:07;22.07;;;19.83;;
1384;SDS011;686;51.080;13.716;2022-08-19T01:06:33;20.73;;;18.53;;
1384;SDS011;686;51.080;13.716;2022-08-19T01:09:01;20.70;;;18.40;;
1384;SDS011;686;51.080;13.716;2022-08-19T01:11:27;24.73;;;19.70;;
1384;SDS011;686;51.080;13.716;2022-08-19T01:13:54;26.80;;;20.07;;
1384;SDS011;686;51.080;13.716;2022-08-19T01:16:21;22.83;;;20.30;;
1384;SDS011;686;51.080;13.716;2022-08-19T01:18:50;21.70;;;19.43;;
1384;SDS011;686;51.080;13.716;2022-08-19T01:21:25;23.03;;;20.57;;
1384;SDS011;686;51.080;13.716;2022-08-19T01:23:55;24.63;;;21.43;;
1384;SDS011;686;51.080;13.716;2022-08-19T01:26:22;26.23;;;23.27;;
1384;SDS011;686;51.080;13.716;2022-08-19T01:28:50;25.60;;;22.33;;
1384;SDS011;686;51.080;13.716;2022-08-19T01:31:20;24.60;;;22.07;;
1384;SDS011;686;51.080;13.716;2022-08-19T01:33:49;26.93;;;21.27;;
1384;SDS011;686;51.080;13.716;2022-08-19T01:36:23;22.93;;;20.40;;
1384;SDS011;686;51.080;13.716;2022-08-19T01:38:54;23.53;;;21.13;;
1384;SDS011;686;51.080;13.716;2022-08-19T01:41:21;27.00;;;21.20;;
1384;SDS011;686;51.080;13.716;2022-08-19T01:43:48;24.80;;;20.50;;
1384;SDS011;686;51.080;13.716;2022-08-19T01:46:15;25.70;;;23.00;;
1384;SDS011;686;51.080;13.716;2022-08-19T01:48:42;22.13;;;19.90;;
1384;SDS011;686;51.080;13.716;2022-08-19T01:51:09;24.63;;;20.17;;
1384;SDS011;686;51.080;13.716;2022-08-19T01:53:36;23.07;;;20.53;;
1384;SDS011;686;51.080;13.716;2022-08-19T01:56:03;22.83;;;20.47;;
1384;SDS011;686;51.080;13.716;2022-08-19T01:58:32;24.57;;;22.03;;
1384;SDS011;686;51.080;13.716;2022-08-19T02:01:02;25.70;;;21.67;;
1384;SDS011;686;51.080;13.716;2022-08-19T02:03:29;27.73;;;24.77;;
1384;SDS011;686;51.080;13.716;2022-08-19T02:05:56;26.40;;;23.30;;
1384;SDS011;686;51.080;13.716;2022-08-19T02:08:27;26.33;;;22.53;;
1384;SDS011;686;51.080;13.716;2022-08-19T02:10:54;24.97;;;21.87;;
1384;SDS011;686;51.080;13.716;2022-08-19T02:13:21;23.47;;;21.17;;
1384;SDS011;686;51.080;13.716;2022-08-19T02:15:48;23.10;;;20.80;;
1384;SDS011;686;51.080;13.716;2022-08-19T02:18:14;22.13;;;19.83;;
1384;SDS011;686;51.080;13.716;2022-08-19T02:20:41;24.60;;;21.90;;
1384;SDS011;686;51.080;13.716;2022-08-19T02:23:08;25.47;;;21.83;;
1384;SDS011;686;51.080;13.716;2022-08-19T02:25:35;24.33;;;21.70;;
1384;SDS011;686;51.080;13.716;2022-08-19T02:28:01;26.60;;;22.40;;
1384;SDS011;686;51.080;13.716;2022-08-19T02:30:27;23.60;;;20.97;;
1384;SDS011;686;51.080;13.716;2022-08-19T02:32:53;26.60;;;22.77;;
1384;SDS011;686;51.080;13.716;2022-08-19T02:35:19;24.37;;;21.77;;
1384;SDS011;686;51.080;13.716;2022-08-19T02:37:46;22.97;;;20.67;;
1384;SDS011;686;51.080;13.716;2022-08-19T02:40:31;24.73;;;20.87;;
1384;SDS011;686;51.080;13.716;2022-08-19T02:43:01;23.77;;;21.00;;
1384;SDS011;686;51.080;13.716;2022-08-19T02:45:32;24.20;;;21.60;;
1384;SDS011;686;51.080;13.716;2022-08-19T02:47:58;23.73;;;21.20;;
1384;SDS011;686;51.080;13.716;2022-08-19T02:50:24;25.37;;;22.30;;
1384;SDS011;686;51.080;13.716;2022-08-19T02:52:50;24.63;;;22.00;;
1384;SDS011;686;51.080;13.716;2022-08-19T02:55:16;23.97;;;21.20;;
1384;SDS011;686;51.080;13.716;2022-08-19T02:57:42;25.13;;;22.50;;
1384;SDS011;686;51.080;13.716;2022-08-19T03:00:08;22.60;;;20.30;;
1384;SDS011;686;51.080;13.716;2022-08-19T03:02:37;24.67;;;21.37;;
1384;SDS011;686;51.080;13.716;2022-08-19T03:05:04;24.67;;;22.10;;
1384;SDS011;686;51.080;13.716;2022-08-19T03:07:30;25.87;;;23.07;;
1384;SDS011;686;51.080;13.716;2022-08-19T03:09:56;25.70;;;23.00;;
1384;SDS011;686;51.080;13.716;2022-08-19T03:12:22;24.60;;;20.80;;
1384;SDS011;686;51.080;13.716;2022-08-19T03:14:47;23.73;;;21.30;;
1384;SDS011;686;51.080;13.716;2022-08-19T03:17:13;25.10;;;22.43;;
1384;SDS011;686;51.080;13.716;2022-08-19T03:19:39;28.63;;;22.87;;
1384;SDS011;686;51.080;13.716;2022-08-19T03:22:05;25.30;;;22.70;;
1384;SDS011;686;51.080;13.716;2022-08-19T03:24:31;27.27;;;23.20;;
1384;SDS011;686;51.080;13.716;2022-08-19T03:26:57;24.77;;;22.13;;
1384;SDS011;686;51.080;13.716;2022-08-19T03:29:24;27.10;;;22.60;;
1384;SDS011;686;51.080;13.716;2022-08-19T03:31:52;28.33;;;23.80;;
1384;SDS011;686;51.080;13.716;2022-08-19T03:34:21;27.70;;;23.90;;
1384;SDS011;686;51.080;13.716;2022-08-19T03:36:51;27.97;;;24.43;;
1384;SDS011;686;51.080;13.716;2022-08-19T03:39:19;27.37;;;23.83;;
1384;SDS011;686;51.080;13.716;2022-08-19T03:41:46;26.87;;;24.00;;
1384;SDS011;686;51.080;13.716;2022-08-19T03:44:16;26.20;;;23.07;;
1384;SDS011;686;51.080;13.716;2022-08-19T03:46:50;28.30;;;24.30;;
1384;SDS011;686;51.080;13.716;2022-08-19T03:49:24;26.80;;;23.80;;
1384;SDS011;686;51.080;13.716;2022-08-19T03:51:53;23.67;;;21.27;;
1384;SDS011;686;51.080;13.716;2022-08-19T03:54:22;27.70;;;24.30;;
1384;SDS011;686;51.080;13.716;2022-08-19T03:56:50;26.00;;;23.30;;
1384;SDS011;686;51.080;13.716;2022-08-19T03:59:29;26.70;;;24.00;;
1384;SDS011;686;51.080;13.716;2022-08-19T04:01:57;36.23;;;23.47;;
1384;SDS011;686;51.080;13.716;2022-08-19T04:04:24;26.87;;;23.80;;
1384;SDS011;686;51.080;13.716;2022-08-19T04:06:51;27.47;;;23.83;;
1384;SDS011;686;51.080;13.716;2022-08-19T04:09:17;24.20;;;21.80;;
1384;SDS011;686;51.080;13.716;2022-08-19T04:11:48;26.00;;;21.63;;
1384;SDS011;686;51.080;13.716;2022-08-19T04:14:19;27.47;;;23.50;;
1384;SDS011;686;51.080;13.716;2022-08-19T04:16:47;29.80;;;22.77;;
1384;SDS011;686;51.080;13.716;2022-08-19T04:19:14;25.93;;;23.13;;
1384;SDS011;686;51.080;13.716;2022-08-19T04:21:43;28.33;;;24.73;;
1384;SDS011;686;51.080;13.716;2022-08-19T04:24:11;25.23;;;22.57;;
1384;SDS011;686;51.080;13.716;2022-08-19T04:26:38;24.63;;;22.00;;
1384;SDS011;686;51.080;13.716;2022-08-19T04:29:14;29.70;;;25.77;;
1384;SDS011;686;51.080;13.716;2022-08-19T04:31:42;27.00;;;24.10;;
1384;SDS011;686;51.080;13.716;2022-08-19T04:34:11;29.93;;;26.70;;
1384;SDS011;686;51.080;13.716;2022-08-19T04:36:39;27.47;;;24.23;;
1384;SDS011;686;51.080;13.716;2022-08-19T04:39:08;27.70;;;23.83;;
1384;SDS011;686;51.080;13.716;2022-08-19T04:41:42;31.27;;;25.70;;
1384;SDS011;686;51.080;13.716;2022-08-19T04:44:27;26.17;;;23.37;;
1384;SDS011;686;51.080;13.716;2022-08-19T04:46:55;25.73;;;23.03;;
1384;SDS011;686;51.080;13.716;2022-08-19T04:49:21;26.00;;;23.00;;
1384;SDS011;686;51.080;13.716;2022-08-19T04:51:48;29.37;;;25.30;;
1384;SDS011;686;51.080;13.716;2022-08-19T04:54:16;31.57;;;23.77;;
1384;SDS011;686;51.080;13.716;2022-08-19T04:56:44;27.93;;;24.73;;
1384;SDS011;686;51.080;13.716;2022-08-19T04:59:09;35.00;;;25.20;;
1384;SDS011;686;51.080;13.716;2022-08-19T05:01:36;29.97;;;26.27;;
1384;SDS011;686;51.080;13.716;2022-08-19T05:04:03;27.57;;;24.70;;
1384;SDS011;686;51.080;13.716;2022-08-19T05:06:32;28.23;;;23.27;;
1384;SDS011;686;51.080;13.716;2022-08-19T05:09:00;36.80;;;23.30;;
1384;SDS011;686;51.080;13.716;2022-08-19T05:11:31;24.67;;;22.07;;
1384;SDS011;686;51.080;13.716;2022-08-19T05:13:59;26.50;;;23.87;;
1384;SDS011;686;51.080;13.716;2022-08-19T05:16:26;24.90;;;22.30;;
1384;SDS011;686;51.080;13.716;2022-08-19T05:18:52;25.90;;;23.27;;
1384;SDS011;686;51.080;13.716;2022-08-19T05:21:37;25.40;;;22.80;;
1384;SDS011;686;51.080;13.716;2022-08-19T05:24:23;24.80;;;22.20;;
1384;SDS011;686;51.080;13.716;2022-08-19T05:26:50;28.60;;;22.00;;
1384;SDS011;686;51.080;13.716;2022-08-19T05:29:19;27.57;;;24.67;;
1384;SDS011;686;51.080;13.716;2022-08-19T05:31:47;32.37;;;22.00;;
1384;SDS011;686;51.080;13.716;2022-08-19T05:34:16;32.40;;;24.97;;
1384;SDS011;686;51.080;13.716;2022-08-19T05:36:46;24.37;;;21.83;;
1384;SDS011;686;51.080;13.716;2022-08-19T05:39:15;30.33;;;26.20;;
1384;SDS011;686;51.080;13.716;2022-08-19T05:41:44;24.90;;;22.30;;
1384;SDS011;686;51.080;13.716;2022-08-19T05:44:11;26.00;;;23.20;;
1384;SDS011;686;51.080;13.716;2022-08-19T05:46:38;26.53;;;23.73;;
1384;SDS011;686;51.080;13.716;2022-08-19T05:49:08;26.33;;;23.73;;
1384;SDS011;686;51.080;13.716;2022-08-19T05:51:34;25.83;;;23.03;;
1384;SDS011;686;51.080;13.716;2022-08-19T05:54:02;32.23;;;25.80;;
1384;SDS011;686;51.080;13.716;2022-08-19T05:56:30;28.27;;;24.10;;
1384;SDS011;686;51.080;13.716;2022-08-19T05:58:56;38.63;;;23.80;;
1384;SDS011;686;51.080;13.716;2022-08-19T06:01:24;24.23;;;20.80;;
1384;SDS011;686;51.080;13.716;2022-08-19T06:03:51;21.53;;;19.30;;
1384;SDS011;686;51.080;13.716;2022-08-19T06:06:17;21.00;;;18.70;;
1384;SDS011;686;51.080;13.716;2022-08-19T06:08:44;20.53;;;18.40;;
1384;SDS011;686;51.080;13.716;2022-08-19T06:11:20;23.80;;;18.37;;
1384;SDS011;686;51.080;13.716;2022-08-19T06:14:00;17.90;;;16.00;;
1384;SDS011;686;51.080;13.716;2022-08-19T06:16:40;24.70;;;18.63;;
1384;SDS011;686;51.080;13.716;2022-08-19T06:19:09;18.20;;;15.80;;
1384;SDS011;686;51.080;13.716;2022-08-19T06:21:37;19.13;;;14.30;;
1384;SDS011;686;51.080;13.716;2022-08-19T06:24:05;16.60;;;14.90;;
1384;SDS011;686;51.080;13.716;2022-08-19T06:26:34;16.17;;;14.60;;
1384;SDS011;686;51.080;13.716;2022-08-19T06:29:02;16.30;;;14.73;;
1384;SDS011;686;51.080;13.716;2022-08-19T06:31:31;18.13;;;14.13;;
1384;SDS011;686;51.080;13.716;2022-08-19T06:33:59;24.03;;;21.47;;
1384;SDS011;686;51.080;13.716;2022-08-19T06:36:28;16.50;;;14.30;;
1384;SDS011;686;51.080;13.716;2022-08-19T06:39:00;18.53;;;16.23;;
1384;SDS011;686;51.080;13.716;2022-08-19T06:41:28;16.33;;;14.60;;
1384;SDS011;686;51.080;13.716;2022-08-19T06:43:55;20.47;;;16.40;;
1384;SDS011;686;51.080;13.716;2022-08-19T06:46:21;22.17;;;16.50;;
1384;SDS011;686;51.080;13.716;2022-08-19T06:48:47;18.27;;;16.07;;
1384;SDS011;686;51.080;13.716;2022-08-19T06:51:15;18.83;;;16.97;;
1384;SDS011;686;51.080;13.716;2022-08-19T06:53:44;20.33;;;18.17;;
1384;SDS011;686;51.080;13.716;2022-08-19T06:56:13;25.93;;;18.30;;
1384;SDS011;686;51.080;13.716;2022-08-19T06:58:43;22.63;;;19.10;;
1384;SDS011;686;51.080;13.716;2022-08-19T07:01:10;22.87;;;18.40;;
1384;SDS011;686;51.080;13.716;2022-08-19T07:03:36;21.20;;;18.60;;
1384;SDS011;686;51.080;13.716;2022-08-19T07:06:04;21.83;;;19.73;;
1384;SDS011;686;51.080;13.716;2022-08-19T07:08:32;22.13;;;19.73;;
1384;SDS011;686;51.080;13.716;2022-08-19T07:10:59;24.40;;;21.20;;
1384;SDS011;686;51.080;13.716;2022-08-19T07:13:25;29.37;;;20.97;;
1384;SDS011;686;51.080;13.716;2022-08-19T07:15:51;26.77;;;20.97;;
1384;SDS011;686;51.080;13.716;2022-08-19T07:18:18;24.50;;;19.63;;
1384;SDS011;686;51.080;13.716;2022-08-19T07:20:45;22.70;;;19.87;;
1384;SDS011;686;51.080;13.716;2022-08-19T07:23:11;23.67;;;21.17;;
1384;SDS011;686;51.080;13.716;2022-08-19T07:25:37;24.07;;;21.47;;
1384;SDS011;686;51.080;13.716;2022-08-19T07:28:04;25.10;;;21.67;;
1384;SDS011;686;51.080;13.716;2022-08-19T07:30:30;25.27;;;22.57;;
1384;SDS011;686;51.080;13.716;2022-08-19T07:32:56;25.53;;;22.70;;
1384;SDS011;686;51.080;13.716;2022-08-19T07:35:22;28.17;;;24.20;;
1384;SDS011;686;51.080;13.716;2022-08-19T07:37:48;28.17;;;23.70;;
1384;SDS011;686;51.080;13.716;2022-08-19T07:40:14;31.13;;;26.03;;
1384;SDS011;686;51.080;13.716;2022-08-19T07:42:42;26.70;;;23.80;;
1384;SDS011;686;51.080;13.716;2022-08-19T07:45:08;24.20;;;21.43;;
1384;SDS011;686;51.080;13.716;2022-08-19T07:47:35;29.17;;;23.40;;
1384;SDS011;686;51.080;13.716;2022-08-19T07:50:01;30.20;;;22.17;;
1384;SDS011;686;51.080;13.716;2022-08-19T07:52:29;29.10;;;24.90;;
1384;SDS011;686;51.080;13.716;2022-08-19T07:54:55;28.07;;;23.90;;
1384;SDS011;686;51.080;13.716;2022-08-19T07:57:21;26.20;;;22.90;;
1384;SDS011;686;51.080;13.716;2022-08-19T07:59:46;25.40;;;22.70;;
1384;SDS011;686;51.080;13.716;2022-08-19T08:02:12;26.37;;;22.10;;
1384;SDS011;686;51.080;13.716;2022-08-19T08:04:38;24.03;;;21.50;;
1384;SDS011;686;51.080;13.716;2022-08-19T08:07:22;32.87;;;23.97;;
1384;SDS011;686;51.080;13.716;2022-08-19T08:10:07;25.63;;;22.90;;
1384;SDS011;686;51.080;13.716;2022-08-19T08:12:34;26.00;;;23.20;;
1384;SDS011;686;51.080;13.716;2022-08-19T08:15:09;23.63;;;20.50;;
1384;SDS011;686;51.080;13.716;2022-08-19T08:17:39;28.37;;;23.40;;
1384;SDS011;686;51.080;13.716;2022-08-19T08:20:05;25.27;;;22.67;;
1384;SDS011;686;51.080;13.716;2022-08-19T08:22:32;27.30;;;23.03;;
1384;SDS011;686;51.080;13.716;2022-08-19T08:25:18;28.80;;;22.17;;
1384;SDS011;686;51.080;13.716;2022-08-19T08:27:46;28.10;;;23.43;;
1384;SDS011;686;51.080;13.716;2022-08-19T08:30:16;26.57;;;22.63;;
1384;SDS011;686;51.080;13.716;2022-08-19T08:32:47;30.03;;;24.30;;
1384;SDS011;686;51.080;13.716;2022-08-19T08:35:14;22.27;;;19.97;;
1384;SDS011;686;51.080;13.716;2022-08-19T08:37:43;21.40;;;19.20;;
1384;SDS011;686;51.080;13.716;2022-08-19T08:40:16;20.87;;;18.83;;
1384;SDS011;686;51.080;13.716;2022-08-19T08:42:58;20.87;;;18.60;;
1384;SDS011;686;51.080;13.716;2022-08-19T08:45:27;20.53;;;18.47;;
1384;SDS011;686;51.080;13.716;2022-08-19T08:47:55;24.80;;;20.93;;
1384;SDS011;686;51.080;13.716;2022-08-19T08:50:31;23.20;;;18.73;;
1384;SDS011;686;51.080;13.716;2022-08-19T08:53:05;17.83;;;16.03;;
1384;SDS011;686;51.080;13.716;2022-08-19T08:55:33;21.00;;;18.80;;
1384;SDS011;686;51.080;13.716;2022-08-19T08:58:20;20.60;;;18.50;;
1384;SDS011;686;51.080;13.716;2022-08-19T09:01:08;24.20;;;20.90;;
1384;SDS011;686;51.080;13.716;2022-08-19T09:03:36;20.67;;;18.60;;
1384;SDS011;686;51.080;13.716;2022-08-19T09:06:06;23.00;;;20.57;;
1384;SDS011;686;51.080;13.716;2022-08-19T09:14:20;22.40;;;20.13;;
1384;SDS011;686;51.080;13.716;2022-08-19T09:17:06;20.80;;;18.80;;
1384;SDS011;686;51.080;13.716;2022-08-19T09:19:54;20.13;;;18.00;;
1384;SDS011;686;51.080;13.716;2022-08-19T09:22:29;21.37;;;19.17;;
1384;SDS011;686;51.080;13.716;2022-08-19T09:24:55;22.47;;;19.37;;
1384;SDS011;686;51.080;13.716;2022-08-19T09:27:22;23.03;;;20.13;;
1384;SDS011;686;51.080;13.716;2022-08-19T09:29:52;22.37;;;19.27;;
1384;SDS011;686;51.080;13.716;2022-08-19T09:32:18;24.00;;;21.00;;
1384;SDS011;686;51.080;13.716;2022-08-19T09:34:45;22.60;;;19.83;;
1384;SDS011;686;51.080;13.716;2022-08-19T09:37:11;23.40;;;19.83;;
1384;SDS011;686;51.080;13.716;2022-08-19T09:39:37;22.30;;;20.00;;
1384;SDS011;686;51.080;13.716;2022-08-19T09:42:06;23.63;;;19.70;;
1384;SDS011;686;51.080;13.716;2022-08-19T09:44:37;21.57;;;19.30;;
1384;SDS011;686;51.080;13.716;2022-08-19T09:47:03;22.97;;;20.70;;
1384;SDS011;686;51.080;13.716;2022-08-19T09:49:30;23.10;;;18.07;;
1384;SDS011;686;51.080;13.716;2022-08-19T09:51:56;21.50;;;19.30;;
1384;SDS011;686;51.080;13.716;2022-08-19T09:54:22;23.60;;;20.53;;
1384;SDS011;686;51.080;13.716;2022-08-19T09:56:49;23.57;;;21.17;;
1384;SDS011;686;51.080;13.716;2022-08-19T09:59:15;20.80;;;18.60;;
1384;SDS011;686;51.080;13.716;2022-08-19T10:01:41;20.03;;;18.07;;
1384;SDS011;686;51.080;13.716;2022-08-19T10:04:07;22.23;;;18.50;;
1384;SDS011;686;51.080;13.716;2022-08-19T10:06:34;17.93;;;16.13;;
1384;SDS011;686;51.080;13.716;2022-08-19T10:09:03;18.20;;;16.33;;
1384;SDS011;686;51.080;13.716;2022-08-19T10:11:31;18.50;;;15.90;;
1384;SDS011;686;51.080;13.716;2022-08-19T10:13:58;16.10;;;14.50;;
1384;SDS011;686;51.080;13.716;2022-08-19T10:16:24;15.20;;;13.60;;
1384;SDS011;686;51.080;13.716;2022-08-19T10:18:51;13.50;;;12.10;;
1384;SDS011;686;51.080;13.716;2022-08-19T10:21:19;16.97;;;13.80;;
1384;SDS011;686;51.080;13.716;2022-08-19T10:23:50;15.00;;;13.40;;
1384;SDS011;686;51.080;13.716;2022-08-19T10:26:18;13.37;;;11.50;;
1384;SDS011;686;51.080;13.716;2022-08-19T10:28:52;20.33;;;18.40;;
1384;SDS011;686;51.080;13.716;2022-08-19T10:34:54;14.43;;;12.90;;
1384;SDS011;686;51.080;13.716;2022-08-19T10:37:21;14.50;;;13.10;;
1384;SDS011;686;51.080;13.716;2022-08-19T10:39:47;12.70;;;11.47;;
1384;SDS011;686;51.080;13.716;2022-08-19T10:42:12;13.57;;;12.30;;
1384;SDS011;686;51.080;13.716;2022-08-19T10:44:39;14.90;;;13.40;;
1384;SDS011;686;51.080;13.716;2022-08-19T10:47:08;14.07;;;12.63;;
1384;SDS011;686;51.080;13.716;2022-08-19T10:49:35;14.03;;;11.90;;
1384;SDS011;686;51.080;13.716;2022-08-19T10:52:21;12.30;;;11.10;;
1384;SDS011;686;51.080;13.716;2022-08-19T10:55:06;13.90;;;12.40;;
1384;SDS011;686;51.080;13.716;2022-08-19T10:57:51;14.50;;;13.17;;
1384;SDS011;686;51.080;13.716;2022-08-19T11:00:18;14.30;;;12.90;;
1384;SDS011;686;51.080;13.716;2022-08-19T11:02:45;13.67;;;12.27;;
1384;SDS011;686;51.080;13.716;2022-08-19T11:05:11;14.10;;;12.80;;
1384;SDS011;686;51.080;13.716;2022-08-19T11:07:39;14.77;;;13.37;;
1384;SDS011;686;51.080;13.716;2022-08-19T11:10:06;14.83;;;13.43;;
1384;SDS011;686;51.080;13.716;2022-08-19T11:12:35;14.87;;;13.23;;
1384;SDS011;686;51.080;13.716;2022-08-19T11:15:04;14.83;;;12.67;;
1384;SDS011;686;51.080;13.716;2022-08-19T11:17:33;16.23;;;14.47;;
1384;SDS011;686;51.080;13.716;2022-08-19T11:19:58;17.40;;;15.30;;
1384;SDS011;686;51.080;13.716;2022-08-19T11:22:28;15.90;;;14.30;;
1384;SDS011;686;51.080;13.716;2022-08-19T11:24:53;16.33;;;14.63;;
1384;SDS011;686;51.080;13.716;2022-08-19T11:27:21;17.33;;;14.93;;
1384;SDS011;686;51.080;13.716;2022-08-19T11:29:47;19.63;;;15.57;;
1384;SDS011;686;51.080;13.716;2022-08-19T11:32:13;16.73;;;14.93;;
1384;SDS011;686;51.080;13.716;2022-08-19T11:34:40;17.60;;;15.77;;
1384;SDS011;686;51.080;13.716;2022-08-19T11:37:06;18.13;;;16.03;;
1384;SDS011;686;51.080;13.716;2022-08-19T11:39:34;21.40;;;16.73;;
1384;SDS011;686;51.080;13.716;2022-08-19T11:42:02;18.37;;;16.57;;
1384;SDS011;686;51.080;13.716;2022-08-19T11:44:52;19.20;;;16.27;;
1384;SDS011;686;51.080;13.716;2022-08-19T11:47:19;18.93;;;17.00;;
1384;SDS011;686;51.080;13.716;2022-08-19T11:49:45;19.37;;;17.37;;
1384;SDS011;686;51.080;13.716;2022-08-19T11:52:12;18.97;;;17.13;;
1384;SDS011;686;51.080;13.716;2022-08-19T11:54:37;19.37;;;17.37;;
1384;SDS011;686;51.080;13.716;2022-08-19T11:57:03;19.80;;;17.77;;
1384;SDS011;686;51.080;13.716;2022-08-19T11:59:29;21.60;;;19.30;;
1384;SDS011;686;51.080;13.716;2022-08-19T12:01:55;24.77;;;21.47;;
1384;SDS011;686;51.080;13.716;2022-08-19T12:04:22;24.20;;;21.07;;
1384;SDS011;686;51.080;13.716;2022-08-19T12:06:48;25.63;;;22.23;;
1384;SDS011;686;51.080;13.716;2022-08-19T12:09:15;29.33;;;23.80;;
1384;SDS011;686;51.080;13.716;2022-08-19T12:11:41;27.80;;;23.37;;
1384;SDS011;686;51.080;13.716;2022-08-19T12:14:09;27.20;;;24.30;;
1384;SDS011;686;51.080;13.716;2022-08-19T12:16:36;28.90;;;23.50;;
1384;SDS011;686;51.080;13.716;2022-08-19T12:19:03;28.03;;;24.87;;
1384;SDS011;686;51.080;13.716;2022-08-19T12:21:30;28.70;;;24.43;;
1384;SDS011;686;51.080;13.716;2022-08-19T12:23:58;28.57;;;23.47;;
1384;SDS011;686;51.080;13.716;2022-08-19T12:26:26;33.90;;;27.37;;
1384;SDS011;686;51.080;13.716;2022-08-19T12:28:52;28.97;;;25.00;;
1384;SDS011;686;51.080;13.716;2022-08-19T12:31:19;33.07;;;27.77;;
1384;SDS011;686;51.080;13.716;2022-08-19T12:33:44;37.60;;;29.70;;
1384;SDS011;686;51.080;13.716;2022-08-19T12:36:12;26.70;;;23.47;;
1384;SDS011;686;51.080;13.716;2022-08-19T12:38:42;27.63;;;22.90;;
1384;SDS011;686;51.080;13.716;2022-08-19T12:41:10;28.30;;;25.27;;
1384;SDS011;686;51.080;13.716;2022-08-19T12:43:37;25.90;;;23.20;;
1384;SDS011;686;51.080;13.716;2022-08-19T12:46:04;30.27;;;25.13;;
1384;SDS011;686;51.080;13.716;2022-08-19T12:48:39;26.87;;;24.00;;
1384;SDS011;686;51.080;13.716;2022-08-19T12:51:08;31.43;;;24.87;;
1384;SDS011;686;51.080;13.716;2022-08-19T12:53:35;28.47;;;23.73;;
1384;SDS011;686;51.080;13.716;2022-08-19T12:56:02;31.93;;;27.13;;
1384;SDS011;686;51.080;13.716;2022-08-19T12:58:28;27.53;;;24.30;;
1384;SDS011;686;51.080;13.716;2022-08-19T13:00:54;25.60;;;22.90;;
1384;SDS011;686;51.080;13.716;2022-08-19T13:03:20;24.63;;;21.97;;
1384;SDS011;686;51.080;13.716;2022-08-19T13:05:50;23.13;;;20.33;;
1384;SDS011;686;51.080;13.716;2022-08-19T13:08:16;25.10;;;22.27;;
1384;SDS011;686;51.080;13.716;2022-08-19T13:10:42;33.27;;;23.23;;
1384;SDS011;686;51.080;13.716;2022-08-19T13:13:08;30.40;;;26.10;;
1384;SDS011;686;51.080;13.716;2022-08-19T13:15:35;33.63;;;25.60;;
1384;SDS011;686;51.080;13.716;2022-08-19T13:18:04;31.83;;;25.90;;
1384;SDS011;686;51.080;13.716;2022-08-19T13:20:31;31.07;;;24.37;;
1384;SDS011;686;51.080;13.716;2022-08-19T13:22:56;30.13;;;25.97;;
1384;SDS011;686;51.080;13.716;2022-08-19T13:25:22;31.07;;;26.60;;
1384;SDS011;686;51.080;13.716;2022-08-19T13:27:50;32.23;;;26.30;;
1384;SDS011;686;51.080;13.716;2022-08-19T13:30:17;36.23;;;27.90;;
1384;SDS011;686;51.080;13.716;2022-08-19T13:33:02;30.10;;;26.67;;
1384;SDS011;686;51.080;13.716;2022-08-19T13:35:43;29.83;;;26.50;;
1384;SDS011;686;51.080;13.716;2022-08-19T13:38:12;32.13;;;26.43;;
1384;SDS011;686;51.080;13.716;2022-08-19T13:40:39;29.23;;;25.63;;
1384;SDS011;686;51.080;13.716;2022-08-19T13:43:06;28.47;;;25.37;;
1384;SDS011;686;51.080;13.716;2022-08-19T13:45:32;29.67;;;25.53;;
1384;SDS011;686;51.080;13.716;2022-08-19T13:47:59;30.40;;;26.80;;
1384;SDS011;686;51.080;13.716;2022-08-19T13:50:27;29.57;;;25.47;;
1384;SDS011;686;51.080;13.716;2022-08-19T13:52:54;29.63;;;26.43;;
1384;SDS011;686;51.080;13.716;2022-08-19T13:55:20;34.17;;;28.17;;
1384;SDS011;686;51.080;13.716;2022-08-19T13:57:57;31.80;;;27.13;;
1384;SDS011;686;51.080;13.716;2022-08-19T14:00:25;33.80;;;27.97;;
1384;SDS011;686;51.080;13.716;2022-08-19T14:02:53;35.87;;;28.30;;
1384;SDS011;686;51.080;13.716;2022-08-19T14:05:20;36.30;;;28.67;;
1384;SDS011;686;51.080;13.716;2022-08-19T14:07:46;34.90;;;30.07;;
1384;SDS011;686;51.080;13.716;2022-08-19T14:10:13;34.67;;;29.70;;
1384;SDS011;686;51.080;13.716;2022-08-19T14:12:40;38.13;;;29.17;;
1384;SDS011;686;51.080;13.716;2022-08-19T14:15:07;41.77;;;29.87;;
1384;SDS011;686;51.080;13.716;2022-08-19T14:17:34;37.63;;;31.57;;
1384;SDS011;686;51.080;13.716;2022-08-19T14:20:07;35.57;;;30.47;;
1384;SDS011;686;51.080;13.716;2022-08-19T14:22:39;40.43;;;33.53;;
1384;SDS011;686;51.080;13.716;2022-08-19T14:25:06;40.70;;;31.10;;
1384;SDS011;686;51.080;13.716;2022-08-19T14:27:34;38.93;;;31.83;;
1384;SDS011;686;51.080;13.716;2022-08-19T14:30:02;47.57;;;35.07;;
1384;SDS011;686;51.080;13.716;2022-08-19T14:32:29;42.83;;;32.60;;
1384;SDS011;686;51.080;13.716;2022-08-19T14:34:55;38.30;;;32.93;;
1384;SDS011;686;51.080;13.716;2022-08-19T14:37:20;42.47;;;33.20;;
1384;SDS011;686;51.080;13.716;2022-08-19T14:39:47;40.27;;;31.53;;
1384;SDS011;686;51.080;13.716;2022-08-19T14:42:13;42.67;;;33.27;;
1384;SDS011;686;51.080;13.716;2022-08-19T14:44:40;38.30;;;33.10;;
1384;SDS011;686;51.080;13.716;2022-08-19T14:47:07;42.03;;;36.10;;
1384;SDS011;686;51.080;13.716;2022-08-19T14:49:33;39.93;;;32.70;;
1384;SDS011;686;51.080;13.716;2022-08-19T14:51:59;46.77;;;32.77;;
1384;SDS011;686;51.080;13.716;2022-08-19T14:54:25;47.43;;;32.33;;
1384;SDS011;686;51.080;13.716;2022-08-19T14:56:51;43.37;;;32.90;;
1384;SDS011;686;51.080;13.716;2022-08-19T14:59:17;38.50;;;32.57;;
1384;SDS011;686;51.080;13.716;2022-08-19T15:01:43;42.27;;;34.27;;
1384;SDS011;686;51.080;13.716;2022-08-19T15:04:09;37.63;;;30.87;;